Sample Charts Sidebar
> Live data! Your data is on the web site for you to access within minutes
 
> Detailed data is easily downloaded as data file, which can be opened with Excel
 
> Charts can be customised if necessary
  Chart 1
 

(A maximum of 50 rows are displayed here. Use "Export Data" to see all rows in the date range.)
Date Collected Temperature
(Celcius)
Wind-chill
(Celcius)
Wind Speed
(km/hr)
Gust
(km/hr)
Wind Direction
(degrees)
2019-02-17 06:00 13.8 12.3 4 13 357
2019-02-17 05:00 13.3 10.7 6 15 341
2019-02-17 04:00 13.3 11.2 5 16 345
2019-02-17 03:00 13.6 10.2 7 18 338
2019-02-17 02:00 13.8 11.4 5 16 342
2019-02-17 01:00 13.3 11.0 5 12 14
2019-02-17 00:00 12.7 11.7 3 8 11
2019-02-16 23:00 12.0 11.8 3 11 36
2019-02-16 22:00 11.0 9.0 4 11 357
2019-02-16 21:00 10.0 9.7 2 8 52
2019-02-16 20:00 10.2 10.0 3 6 55
2019-02-16 19:00 11.0 10.5 3 7 41
2019-02-16 18:00 11.6 11.0 3 6 37
2019-02-16 17:00 12.9 11.7 4 11 19
2019-02-16 16:00 14.1 12.2 5 12 355
2019-02-16 15:00 14.4 12.4 5 14 35
2019-02-16 14:00 14.2 12.2 5 14 14
2019-02-16 13:00 14.3 12.7 5 11 20
2019-02-16 12:00 14.0 12.1 5 12 2
2019-02-16 11:00 12.5 11.1 4 8 34
2019-02-16 10:00 8.9 7.7 4 8 52
2019-02-16 09:00 7.6 5.9 4 8 58
2019-02-16 08:00 5.3 3.7 4 8 45
2019-02-16 07:00 5.1 4.8 2 5 55
2019-02-16 06:00 5.3 5.4 2 5 31
2019-02-16 05:00 7.0 7.0 1 3 214
2019-02-16 04:00 8.4 7.9 3 8 188
2019-02-16 03:00 9.1 6.9 5 13 204
2019-02-16 02:00 9.0 4.5 7 16 206
2019-02-16 01:00 8.9 5.4 6 15 201
2019-02-16 00:00 9.2 3.1 10 23 209
2019-02-15 23:00 8.4 6.7 4 10 197
2019-02-15 22:00 7.5 5.8 4 13 187
2019-02-15 21:00 8.6 6.3 5 15 201
2019-02-15 20:00 8.8 1.5 11 28 199
2019-02-15 19:00 9.1 4.2 7 20 205
2019-02-15 18:00 8.6 7.8 2 13 216
2019-02-15 17:00 8.1 3.2 8 20 193
2019-02-15 16:00 8.7 6.3 5 15 264
2019-02-15 15:00 9.6 5.6 7 19 222
2019-02-15 14:00 9.7 2.6 10 25 207
2019-02-15 13:00 10.3 4.0 10 23 206
2019-02-15 12:00 10.6 6.2 7 15 208
2019-02-15 11:00 9.8 8.1 4 11 199
2019-02-15 10:00 9.6 9.2 2 8 200
2019-02-15 09:00 9.5 8.1 4 11 197
2019-02-15 08:00 9.7 9.0 3 10 222
2019-02-15 07:00 11.2 10.3 3 8 234
2019-02-15 06:00 12.8 12.2 3 10 345
2019-02-15 05:00 13.2 11.6 4 13 342